sensor_id;sensor_type;location;lat;lon;timestamp;P1;durP1;ratioP1;P2;durP2;ratioP2
47273;SDS011;33007;49.082;19.306;2022-08-01T00:01:46;4.10;;;2.60;;
47273;SDS011;33007;49.082;19.306;2022-08-01T00:04:12;4.35;;;2.83;;
47273;SDS011;33007;49.082;19.306;2022-08-01T00:06:37;5.70;;;2.92;;
47273;SDS011;33007;49.082;19.306;2022-08-01T00:09:02;3.80;;;3.00;;
47273;SDS011;33007;49.082;19.306;2022-08-01T00:11:28;2.95;;;2.60;;
47273;SDS011;33007;49.082;19.306;2022-08-01T00:13:53;7.18;;;2.80;;
47273;SDS011;33007;49.082;19.306;2022-08-01T00:16:19;4.45;;;2.67;;
47273;SDS011;33007;49.082;19.306;2022-08-01T00:18:47;3.78;;;2.40;;
47273;SDS011;33007;49.082;19.306;2022-08-01T00:21:14;2.83;;;2.50;;
47273;SDS011;33007;49.082;19.306;2022-08-01T00:23:40;8.68;;;2.55;;
47273;SDS011;33007;49.082;19.306;2022-08-01T00:26:05;5.03;;;2.67;;
47273;SDS011;33007;49.082;19.306;2022-08-01T00:28:31;4.20;;;2.17;;
47273;SDS011;33007;49.082;19.306;2022-08-01T00:30:56;2.60;;;2.40;;
47273;SDS011;33007;49.082;19.306;2022-08-01T00:33:22;2.88;;;2.40;;
47273;SDS011;33007;49.082;19.306;2022-08-01T00:35:47;5.18;;;2.47;;
47273;SDS011;33007;49.082;19.306;2022-08-01T00:38:13;4.35;;;2.55;;
47273;SDS011;33007;49.082;19.306;2022-08-01T00:40:38;3.25;;;2.35;;
47273;SDS011;33007;49.082;19.306;2022-08-01T00:43:03;4.03;;;2.40;;
47273;SDS011;33007;49.082;19.306;2022-08-01T00:45:29;2.28;;;2.08;;
47273;SDS011;33007;49.082;19.306;2022-08-01T00:47:54;3.05;;;2.20;;
47273;SDS011;33007;49.082;19.306;2022-08-01T00:50:20;4.10;;;2.20;;
47273;SDS011;33007;49.082;19.306;2022-08-01T00:52:46;3.03;;;2.30;;
47273;SDS011;33007;49.082;19.306;2022-08-01T00:55:11;5.53;;;2.50;;
47273;SDS011;33007;49.082;19.306;2022-08-01T00:57:38;4.13;;;2.17;;
47273;SDS011;33007;49.082;19.306;2022-08-01T01:00:05;4.80;;;2.50;;
47273;SDS011;33007;49.082;19.306;2022-08-01T01:02:31;2.50;;;2.30;;
47273;SDS011;33007;49.082;19.306;2022-08-01T01:04:57;3.78;;;2.55;;
47273;SDS011;33007;49.082;19.306;2022-08-01T01:10:23;4.22;;;2.30;;
47273;SDS011;33007;49.082;19.306;2022-08-01T01:13:16;5.93;;;2.45;;
47273;SDS011;33007;49.082;19.306;2022-08-01T01:15:47;2.72;;;2.15;;
47273;SDS011;33007;49.082;19.306;2022-08-01T01:18:24;2.60;;;2.40;;
47273;SDS011;33007;49.082;19.306;2022-08-01T01:29:08;3.72;;;2.38;;
47273;SDS011;33007;49.082;19.306;2022-08-01T01:31:50;4.18;;;2.58;;
47273;SDS011;33007;49.082;19.306;2022-08-01T01:34:21;4.72;;;2.60;;
47273;SDS011;33007;49.082;19.306;2022-08-01T01:36:48;3.67;;;3.15;;
47273;SDS011;33007;49.082;19.306;2022-08-01T01:39:15;3.33;;;2.88;;
47273;SDS011;33007;49.082;19.306;2022-08-01T01:41:42;5.20;;;4.00;;
47273;SDS011;33007;49.082;19.306;2022-08-01T01:44:09;5.10;;;3.90;;
47273;SDS011;33007;49.082;19.306;2022-08-01T01:46:35;4.68;;;4.20;;
47273;SDS011;33007;49.082;19.306;2022-08-01T01:49:02;9.35;;;4.57;;
47273;SDS011;33007;49.082;19.306;2022-08-01T01:51:28;38.22;;;6.22;;
47273;SDS011;33007;49.082;19.306;2022-08-01T01:53:55;12.20;;;4.80;;
47273;SDS011;33007;49.082;19.306;2022-08-01T01:56:22;6.90;;;5.50;;
47273;SDS011;33007;49.082;19.306;2022-08-01T01:58:50;9.18;;;5.03;;
47273;SDS011;33007;49.082;19.306;2022-08-01T02:01:19;5.82;;;3.78;;
47273;SDS011;33007;49.082;19.306;2022-08-01T02:03:46;9.38;;;3.67;;
47273;SDS011;33007;49.082;19.306;2022-08-01T02:06:14;5.43;;;3.05;;
47273;SDS011;33007;49.082;19.306;2022-08-01T02:08:41;6.82;;;3.15;;
47273;SDS011;33007;49.082;19.306;2022-08-01T02:11:09;5.40;;;2.50;;
47273;SDS011;33007;49.082;19.306;2022-08-01T02:13:44;3.38;;;2.83;;
47273;SDS011;33007;49.082;19.306;2022-08-01T02:16:13;4.00;;;2.80;;
47273;SDS011;33007;49.082;19.306;2022-08-01T02:18:41;4.05;;;2.55;;
47273;SDS011;33007;49.082;19.306;2022-08-01T02:21:08;3.25;;;2.60;;
47273;SDS011;33007;49.082;19.306;2022-08-01T02:23:37;4.72;;;2.80;;
47273;SDS011;33007;49.082;19.306;2022-08-01T02:26:06;3.95;;;2.70;;
47273;SDS011;33007;49.082;19.306;2022-08-01T02:31:04;4.00;;;3.20;;
47273;SDS011;33007;49.082;19.306;2022-08-01T02:33:37;5.40;;;3.10;;
47273;SDS011;33007;49.082;19.306;2022-08-01T02:36:06;3.55;;;3.25;;
47273;SDS011;33007;49.082;19.306;2022-08-01T02:38:33;3.92;;;3.05;;
47273;SDS011;33007;49.082;19.306;2022-08-01T02:41:19;4.53;;;3.25;;
47273;SDS011;33007;49.082;19.306;2022-08-01T02:43:48;4.07;;;3.70;;
47273;SDS011;33007;49.082;19.306;2022-08-01T02:46:18;5.07;;;3.50;;
47273;SDS011;33007;49.082;19.306;2022-08-01T02:48:47;4.25;;;3.10;;
47273;SDS011;33007;49.082;19.306;2022-08-01T02:51:17;6.83;;;3.93;;
47273;SDS011;33007;49.082;19.306;2022-08-01T02:53:46;4.40;;;3.53;;
47273;SDS011;33007;49.082;19.306;2022-08-01T02:56:13;4.07;;;3.40;;
47273;SDS011;33007;49.082;19.306;2022-08-01T02:58:40;5.47;;;3.42;;
47273;SDS011;33007;49.082;19.306;2022-08-01T03:01:07;20.13;;;3.67;;
47273;SDS011;33007;49.082;19.306;2022-08-01T03:03:34;6.43;;;3.53;;
47273;SDS011;33007;49.082;19.306;2022-08-01T03:06:00;4.13;;;3.72;;
47273;SDS011;33007;49.082;19.306;2022-08-01T03:08:27;4.40;;;3.67;;
47273;SDS011;33007;49.082;19.306;2022-08-01T03:10:55;14.00;;;3.70;;
47273;SDS011;33007;49.082;19.306;2022-08-01T03:13:23;9.38;;;3.38;;
47273;SDS011;33007;49.082;19.306;2022-08-01T03:15:51;5.40;;;3.50;;
47273;SDS011;33007;49.082;19.306;2022-08-01T03:18:19;5.40;;;4.10;;
47273;SDS011;33007;49.082;19.306;2022-08-01T03:20:49;6.60;;;4.10;;
47273;SDS011;33007;49.082;19.306;2022-08-01T03:23:17;7.53;;;3.70;;
47273;SDS011;33007;49.082;19.306;2022-08-01T03:25:45;6.53;;;4.43;;
47273;SDS011;33007;49.082;19.306;2022-08-01T03:28:14;7.72;;;4.28;;
47273;SDS011;33007;49.082;19.306;2022-08-01T03:30:41;17.15;;;5.03;;
47273;SDS011;33007;49.082;19.306;2022-08-01T03:33:08;26.00;;;6.07;;
47273;SDS011;33007;49.082;19.306;2022-08-01T03:35:39;4.85;;;4.40;;
47273;SDS011;33007;49.082;19.306;2022-08-01T03:38:10;14.40;;;4.88;;
47273;SDS011;33007;49.082;19.306;2022-08-01T03:40:40;17.80;;;5.13;;
47273;SDS011;33007;49.082;19.306;2022-08-01T03:46:07;5.28;;;4.78;;
47273;SDS011;33007;49.082;19.306;2022-08-01T03:48:42;10.20;;;4.38;;
47273;SDS011;33007;49.082;19.306;2022-08-01T03:51:11;7.95;;;5.00;;
47273;SDS011;33007;49.082;19.306;2022-08-01T03:53:38;7.95;;;4.90;;
47273;SDS011;33007;49.082;19.306;2022-08-01T03:56:07;6.25;;;4.68;;
47273;SDS011;33007;49.082;19.306;2022-08-01T03:58:35;22.38;;;5.00;;
47273;SDS011;33007;49.082;19.306;2022-08-01T04:01:03;8.35;;;4.35;;
47273;SDS011;33007;49.082;19.306;2022-08-01T04:03:30;10.27;;;4.55;;
47273;SDS011;33007;49.082;19.306;2022-08-01T04:05:57;13.32;;;4.45;;
47273;SDS011;33007;49.082;19.306;2022-08-01T04:08:22;5.13;;;4.00;;
47273;SDS011;33007;49.082;19.306;2022-08-01T04:10:48;4.82;;;3.67;;
47273;SDS011;33007;49.082;19.306;2022-08-01T04:13:13;6.70;;;3.72;;
47273;SDS011;33007;49.082;19.306;2022-08-01T04:15:39;23.63;;;4.43;;
47273;SDS011;33007;49.082;19.306;2022-08-01T04:18:04;9.00;;;3.80;;
47273;SDS011;33007;49.082;19.306;2022-08-01T04:20:31;14.93;;;3.72;;
47273;SDS011;33007;49.082;19.306;2022-08-01T04:22:57;10.55;;;3.72;;
47273;SDS011;33007;49.082;19.306;2022-08-01T04:25:28;4.03;;;3.33;;
47273;SDS011;33007;49.082;19.306;2022-08-01T04:27:58;3.50;;;3.20;;
47273;SDS011;33007;49.082;19.306;2022-08-01T04:30:29;8.93;;;3.00;;
47273;SDS011;33007;49.082;19.306;2022-08-01T04:33:00;17.20;;;3.63;;
47273;SDS011;33007;49.082;19.306;2022-08-01T04:35:30;8.90;;;3.15;;
47273;SDS011;33007;49.082;19.306;2022-08-01T04:37:57;14.60;;;3.13;;
47273;SDS011;33007;49.082;19.306;2022-08-01T04:40:26;11.93;;;3.85;;
47273;SDS011;33007;49.082;19.306;2022-08-01T04:42:53;4.22;;;3.40;;
47273;SDS011;33007;49.082;19.306;2022-08-01T04:45:19;15.20;;;4.60;;
47273;SDS011;33007;49.082;19.306;2022-08-01T04:47:46;74.38;;;7.75;;
47273;SDS011;33007;49.082;19.306;2022-08-01T04:50:12;8.38;;;4.00;;
47273;SDS011;33007;49.082;19.306;2022-08-01T04:52:38;82.25;;;8.02;;
47273;SDS011;33007;49.082;19.306;2022-08-01T04:55:07;8.75;;;4.22;;
47273;SDS011;33007;49.082;19.306;2022-08-01T04:57:37;15.60;;;4.07;;
47273;SDS011;33007;49.082;19.306;2022-08-01T05:00:05;4.38;;;3.75;;
47273;SDS011;33007;49.082;19.306;2022-08-01T05:02:31;4.20;;;3.80;;
47273;SDS011;33007;49.082;19.306;2022-08-01T05:04:57;23.92;;;3.75;;
47273;SDS011;33007;49.082;19.306;2022-08-01T05:07:22;4.13;;;3.55;;
47273;SDS011;33007;49.082;19.306;2022-08-01T05:09:48;39.30;;;5.68;;
47273;SDS011;33007;49.082;19.306;2022-08-01T05:12:13;4.25;;;3.60;;
47273;SDS011;33007;49.082;19.306;2022-08-01T05:14:39;3.90;;;3.50;;
47273;SDS011;33007;49.082;19.306;2022-08-01T05:17:06;3.97;;;3.35;;
47273;SDS011;33007;49.082;19.306;2022-08-01T05:19:38;4.30;;;2.97;;
47273;SDS011;33007;49.082;19.306;2022-08-01T05:22:05;4.45;;;3.47;;
47273;SDS011;33007;49.082;19.306;2022-08-01T05:24:33;3.80;;;3.30;;
47273;SDS011;33007;49.082;19.306;2022-08-01T05:27:00;12.88;;;3.70;;
47273;SDS011;33007;49.082;19.306;2022-08-01T05:29:26;4.72;;;3.42;;
47273;SDS011;33007;49.082;19.306;2022-08-01T05:31:52;9.38;;;3.60;;
47273;SDS011;33007;49.082;19.306;2022-08-01T05:34:18;3.47;;;2.95;;
47273;SDS011;33007;49.082;19.306;2022-08-01T05:36:44;4.05;;;3.40;;
47273;SDS011;33007;49.082;19.306;2022-08-01T05:39:10;4.15;;;3.45;;
47273;SDS011;33007;49.082;19.306;2022-08-01T05:41:36;4.68;;;3.67;;
47273;SDS011;33007;49.082;19.306;2022-08-01T05:44:02;5.10;;;3.42;;
47273;SDS011;33007;49.082;19.306;2022-08-01T05:46:28;5.22;;;4.07;;
47273;SDS011;33007;49.082;19.306;2022-08-01T05:48:55;4.40;;;3.85;;
47273;SDS011;33007;49.082;19.306;2022-08-01T05:51:24;4.13;;;3.50;;
47273;SDS011;33007;49.082;19.306;2022-08-01T05:53:50;3.97;;;3.67;;
47273;SDS011;33007;49.082;19.306;2022-08-01T05:56:16;4.45;;;4.00;;
47273;SDS011;33007;49.082;19.306;2022-08-01T05:58:42;3.95;;;3.55;;
47273;SDS011;33007;49.082;19.306;2022-08-01T06:01:08;3.63;;;3.33;;
47273;SDS011;33007;49.082;19.306;2022-08-01T06:03:33;5.10;;;3.45;;
47273;SDS011;33007;49.082;19.306;2022-08-01T06:05:59;3.67;;;3.38;;
47273;SDS011;33007;49.082;19.306;2022-08-01T06:08:25;4.57;;;3.50;;
47273;SDS011;33007;49.082;19.306;2022-08-01T06:10:51;4.80;;;4.00;;
47273;SDS011;33007;49.082;19.306;2022-08-01T06:13:17;4.90;;;3.75;;
47273;SDS011;33007;49.082;19.306;2022-08-01T06:15:44;4.72;;;4.00;;
47273;SDS011;33007;49.082;19.306;2022-08-01T06:18:10;4.43;;;4.00;;
47273;SDS011;33007;49.082;19.306;2022-08-01T06:20:36;4.50;;;4.10;;
47273;SDS011;33007;49.082;19.306;2022-08-01T06:23:02;5.43;;;3.80;;
47273;SDS011;33007;49.082;19.306;2022-08-01T06:25:28;3.80;;;3.50;;
47273;SDS011;33007;49.082;19.306;2022-08-01T06:27:54;6.47;;;3.97;;
47273;SDS011;33007;49.082;19.306;2022-08-01T06:30:19;4.93;;;3.90;;
47273;SDS011;33007;49.082;19.306;2022-08-01T06:32:45;3.95;;;3.55;;
47273;SDS011;33007;49.082;19.306;2022-08-01T06:35:11;4.13;;;3.30;;
47273;SDS011;33007;49.082;19.306;2022-08-01T06:37:36;4.40;;;4.00;;
47273;SDS011;33007;49.082;19.306;2022-08-01T06:42:28;4.50;;;3.80;;
47273;SDS011;33007;49.082;19.306;2022-08-01T06:44:57;5.97;;;4.20;;
47273;SDS011;33007;49.082;19.306;2022-08-01T06:47:22;6.20;;;3.70;;
47273;SDS011;33007;49.082;19.306;2022-08-01T06:49:48;4.28;;;3.60;;
47273;SDS011;33007;49.082;19.306;2022-08-01T06:52:14;7.78;;;3.67;;
47273;SDS011;33007;49.082;19.306;2022-08-01T06:54:39;4.70;;;3.35;;
47273;SDS011;33007;49.082;19.306;2022-08-01T06:57:05;3.97;;;3.35;;
47273;SDS011;33007;49.082;19.306;2022-08-01T06:59:31;3.42;;;3.13;;
47273;SDS011;33007;49.082;19.306;2022-08-01T07:01:57;3.70;;;2.83;;
47273;SDS011;33007;49.082;19.306;2022-08-01T07:04:22;2.75;;;2.55;;
47273;SDS011;33007;49.082;19.306;2022-08-01T07:06:48;5.28;;;3.00;;
47273;SDS011;33007;49.082;19.306;2022-08-01T07:09:13;3.80;;;2.72;;
47273;SDS011;33007;49.082;19.306;2022-08-01T07:11:39;3.50;;;3.00;;
47273;SDS011;33007;49.082;19.306;2022-08-01T07:14:04;3.03;;;2.67;;
47273;SDS011;33007;49.082;19.306;2022-08-01T07:16:30;10.77;;;3.38;;
47273;SDS011;33007;49.082;19.306;2022-08-01T07:18:55;4.85;;;3.22;;
47273;SDS011;33007;49.082;19.306;2022-08-01T07:21:21;3.55;;;2.47;;
47273;SDS011;33007;49.082;19.306;2022-08-01T07:23:46;3.00;;;2.70;;
47273;SDS011;33007;49.082;19.306;2022-08-01T07:26:12;4.38;;;2.42;;
47273;SDS011;33007;49.082;19.306;2022-08-01T07:28:38;3.85;;;2.50;;
47273;SDS011;33007;49.082;19.306;2022-08-01T07:31:03;3.35;;;2.50;;
47273;SDS011;33007;49.082;19.306;2022-08-01T07:33:29;3.88;;;2.38;;
47273;SDS011;33007;49.082;19.306;2022-08-01T07:35:55;5.57;;;2.42;;
47273;SDS011;33007;49.082;19.306;2022-08-01T07:38:21;3.72;;;2.38;;
47273;SDS011;33007;49.082;19.306;2022-08-01T07:40:47;5.72;;;2.58;;
47273;SDS011;33007;49.082;19.306;2022-08-01T07:43:12;2.42;;;1.90;;
47273;SDS011;33007;49.082;19.306;2022-08-01T07:45:38;2.75;;;2.55;;
47273;SDS011;33007;49.082;19.306;2022-08-01T07:48:06;3.47;;;2.55;;
47273;SDS011;33007;49.082;19.306;2022-08-01T07:50:32;3.92;;;2.80;;
47273;SDS011;33007;49.082;19.306;2022-08-01T07:52:58;3.55;;;2.33;;
47273;SDS011;33007;49.082;19.306;2022-08-01T07:55:23;3.25;;;2.65;;
47273;SDS011;33007;49.082;19.306;2022-08-01T07:57:49;4.93;;;2.10;;
47273;SDS011;33007;49.082;19.306;2022-08-01T08:00:15;7.40;;;2.00;;
47273;SDS011;33007;49.082;19.306;2022-08-01T08:02:40;2.50;;;1.80;;
47273;SDS011;33007;49.082;19.306;2022-08-01T08:05:06;1.90;;;1.70;;
47273;SDS011;33007;49.082;19.306;2022-08-01T08:07:33;1.80;;;1.70;;
47273;SDS011;33007;49.082;19.306;2022-08-01T08:09:59;2.35;;;1.60;;
47273;SDS011;33007;49.082;19.306;2022-08-01T08:12:24;3.78;;;2.13;;
47273;SDS011;33007;49.082;19.306;2022-08-01T08:14:50;2.55;;;1.75;;
47273;SDS011;33007;49.082;19.306;2022-08-01T08:17:16;3.25;;;2.20;;
47273;SDS011;33007;49.082;19.306;2022-08-01T08:19:42;2.97;;;1.70;;
47273;SDS011;33007;49.082;19.306;2022-08-01T08:22:08;2.10;;;1.90;;
47273;SDS011;33007;49.082;19.306;2022-08-01T08:24:34;1.60;;;1.50;;
47273;SDS011;33007;49.082;19.306;2022-08-01T08:27:01;2.63;;;1.85;;
47273;SDS011;33007;49.082;19.306;2022-08-01T08:29:28;5.60;;;1.75;;
47273;SDS011;33007;49.082;19.306;2022-08-01T08:31:56;1.92;;;1.67;;
47273;SDS011;33007;49.082;19.306;2022-08-01T08:34:24;3.08;;;1.70;;
47273;SDS011;33007;49.082;19.306;2022-08-01T08:36:50;3.58;;;1.70;;
47273;SDS011;33007;49.082;19.306;2022-08-01T08:39:17;3.10;;;2.00;;
47273;SDS011;33007;49.082;19.306;2022-08-01T08:41:43;3.78;;;1.60;;
47273;SDS011;33007;49.082;19.306;2022-08-01T08:44:09;3.55;;;1.67;;
47273;SDS011;33007;49.082;19.306;2022-08-01T08:46:43;2.03;;;1.70;;
47273;SDS011;33007;49.082;19.306;2022-08-01T08:49:11;1.73;;;1.58;;
47273;SDS011;33007;49.082;19.306;2022-08-01T08:51:41;3.53;;;1.45;;
47273;SDS011;33007;49.082;19.306;2022-08-01T08:54:07;1.70;;;1.45;;
47273;SDS011;33007;49.082;19.306;2022-08-01T08:56:36;2.65;;;2.03;;
47273;SDS011;33007;49.082;19.306;2022-08-01T08:59:03;4.43;;;1.60;;
47273;SDS011;33007;49.082;19.306;2022-08-01T09:01:29;3.45;;;1.52;;
47273;SDS011;33007;49.082;19.306;2022-08-01T09:03:57;1.80;;;1.70;;
47273;SDS011;33007;49.082;19.306;2022-08-01T09:06:23;3.22;;;1.75;;
47273;SDS011;33007;49.082;19.306;2022-08-01T09:08:49;4.45;;;1.77;;
47273;SDS011;33007;49.082;19.306;2022-08-01T09:11:15;2.47;;;1.70;;
47273;SDS011;33007;49.082;19.306;2022-08-01T09:13:40;3.00;;;1.60;;
47273;SDS011;33007;49.082;19.306;2022-08-01T09:16:06;2.60;;;1.42;;
47273;SDS011;33007;49.082;19.306;2022-08-01T09:18:32;1.75;;;1.65;;
47273;SDS011;33007;49.082;19.306;2022-08-01T09:23:31;3.50;;;1.92;;
47273;SDS011;33007;49.082;19.306;2022-08-01T09:26:03;3.33;;;1.83;;
47273;SDS011;33007;49.082;19.306;2022-08-01T09:28:30;2.45;;;1.50;;
47273;SDS011;33007;49.082;19.306;2022-08-01T09:30:57;2.25;;;1.75;;
47273;SDS011;33007;49.082;19.306;2022-08-01T09:33:22;1.50;;;1.40;;
47273;SDS011;33007;49.082;19.306;2022-08-01T09:35:55;2.90;;;1.48;;
47273;SDS011;33007;49.082;19.306;2022-08-01T09:38:25;2.13;;;1.70;;
47273;SDS011;33007;49.082;19.306;2022-08-01T09:40:55;3.88;;;1.70;;
47273;SDS011;33007;49.082;19.306;2022-08-01T09:43:23;2.85;;;2.00;;
47273;SDS011;33007;49.082;19.306;2022-08-01T09:45:50;2.80;;;2.05;;
47273;SDS011;33007;49.082;19.306;2022-08-01T09:48:17;2.90;;;1.95;;
47273;SDS011;33007;49.082;19.306;2022-08-01T09:50:45;4.20;;;1.90;;
47273;SDS011;33007;49.082;19.306;2022-08-01T09:53:12;2.35;;;1.95;;
47273;SDS011;33007;49.082;19.306;2022-08-01T09:55:38;3.05;;;1.92;;
47273;SDS011;33007;49.082;19.306;2022-08-01T09:58:05;12.18;;;2.45;;
47273;SDS011;33007;49.082;19.306;2022-08-01T10:00:32;2.97;;;2.00;;
47273;SDS011;33007;49.082;19.306;2022-08-01T10:02:59;4.25;;;2.20;;
47273;SDS011;33007;49.082;19.306;2022-08-01T10:05:32;2.63;;;1.80;;
47273;SDS011;33007;49.082;19.306;2022-08-01T10:07:59;3.67;;;2.25;;
47273;SDS011;33007;49.082;19.306;2022-08-01T10:10:28;4.97;;;1.92;;
47273;SDS011;33007;49.082;19.306;2022-08-01T10:12:53;3.92;;;2.22;;
47273;SDS011;33007;49.082;19.306;2022-08-01T10:15:21;18.70;;;2.83;;
47273;SDS011;33007;49.082;19.306;2022-08-01T10:17:58;2.60;;;2.08;;
47273;SDS011;33007;49.082;19.306;2022-08-01T10:20:27;6.88;;;2.72;;
47273;SDS011;33007;49.082;19.306;2022-08-01T10:22:54;17.70;;;2.83;;
47273;SDS011;33007;49.082;19.306;2022-08-01T10:25:23;41.05;;;10.55;;
47273;SDS011;33007;49.082;19.306;2022-08-01T10:27:52;12.50;;;5.60;;
47273;SDS011;33007;49.082;19.306;2022-08-01T10:30:21;13.30;;;4.95;;
47273;SDS011;33007;49.082;19.306;2022-08-01T10:32:48;6.38;;;2.95;;
47273;SDS011;33007;49.082;19.306;2022-08-01T10:35:17;10.18;;;3.60;;
47273;SDS011;33007;49.082;19.306;2022-08-01T10:37:44;8.75;;;3.03;;
47273;SDS011;33007;49.082;19.306;2022-08-01T10:40:15;5.22;;;2.58;;
47273;SDS011;33007;49.082;19.306;2022-08-01T10:42:42;4.63;;;2.55;;
47273;SDS011;33007;49.082;19.306;2022-08-01T10:45:09;3.92;;;2.20;;
47273;SDS011;33007;49.082;19.306;2022-08-01T10:52:41;5.25;;;2.40;;
47273;SDS011;33007;49.082;19.306;2022-08-01T10:55:27;15.52;;;2.70;;
47273;SDS011;33007;49.082;19.306;2022-08-01T10:57:52;3.72;;;2.17;;
47273;SDS011;33007;49.082;19.306;2022-08-01T11:00:19;4.13;;;1.90;;
47273;SDS011;33007;49.082;19.306;2022-08-01T11:03:07;3.47;;;2.20;;
47273;SDS011;33007;49.082;19.306;2022-08-01T11:05:33;3.00;;;2.10;;
47273;SDS011;33007;49.082;19.306;2022-08-01T11:08:06;3.55;;;2.05;;
47273;SDS011;33007;49.082;19.306;2022-08-01T11:10:39;2.88;;;2.13;;
47273;SDS011;33007;49.082;19.306;2022-08-01T11:13:08;3.22;;;2.20;;
47273;SDS011;33007;49.082;19.306;2022-08-01T11:15:36;4.13;;;2.42;;
47273;SDS011;33007;49.082;19.306;2022-08-01T11:18:03;3.90;;;2.33;;
47273;SDS011;33007;49.082;19.306;2022-08-01T11:21:01;3.97;;;2.20;;
47273;SDS011;33007;49.082;19.306;2022-08-01T11:23:28;3.53;;;2.10;;
47273;SDS011;33007;49.082;19.306;2022-08-01T11:28:21;3.40;;;2.22;;
47273;SDS011;33007;49.082;19.306;2022-08-01T11:30:51;4.97;;;2.30;;
47273;SDS011;33007;49.082;19.306;2022-08-01T11:33:18;4.22;;;2.30;;
47273;SDS011;33007;49.082;19.306;2022-08-01T11:38:36;4.10;;;1.92;;
47273;SDS011;33007;49.082;19.306;2022-08-01T11:41:10;2.50;;;1.83;;
47273;SDS011;33007;49.082;19.306;2022-08-01T11:49:26;10.95;;;2.40;;
47273;SDS011;33007;49.082;19.306;2022-08-01T11:51:59;3.70;;;1.73;;
47273;SDS011;33007;49.082;19.306;2022-08-01T11:54:28;2.78;;;1.80;;
47273;SDS011;33007;49.082;19.306;2022-08-01T11:56:58;3.15;;;2.17;;
47273;SDS011;33007;49.082;19.306;2022-08-01T11:59:25;2.17;;;1.73;;
47273;SDS011;33007;49.082;19.306;2022-08-01T12:01:51;3.17;;;1.90;;
47273;SDS011;33007;49.082;19.306;2022-08-01T12:04:17;4.55;;;2.05;;
47273;SDS011;33007;49.082;19.306;2022-08-01T12:06:43;4.22;;;2.10;;
47273;SDS011;33007;49.082;19.306;2022-08-01T12:09:19;3.97;;;2.05;;
47273;SDS011;33007;49.082;19.306;2022-08-01T12:11:45;2.17;;;1.98;;
47273;SDS011;33007;49.082;19.306;2022-08-01T12:14:15;3.17;;;2.20;;
47273;SDS011;33007;49.082;19.306;2022-08-01T12:16:49;2.97;;;2.13;;
47273;SDS011;33007;49.082;19.306;2022-08-01T12:19:22;3.58;;;2.08;;
47273;SDS011;33007;49.082;19.306;2022-08-01T12:24:35;2.70;;;2.03;;
47273;SDS011;33007;49.082;19.306;2022-08-01T12:27:02;4.15;;;2.13;;
47273;SDS011;33007;49.082;19.306;2022-08-01T12:32:20;3.20;;;2.10;;
47273;SDS011;33007;49.082;19.306;2022-08-01T12:34:48;2.65;;;2.22;;
47273;SDS011;33007;49.082;19.306;2022-08-01T12:37:14;2.70;;;1.85;;
47273;SDS011;33007;49.082;19.306;2022-08-01T12:39:41;3.45;;;2.40;;
47273;SDS011;33007;49.082;19.306;2022-08-01T12:42:07;2.47;;;2.03;;
47273;SDS011;33007;49.082;19.306;2022-08-01T12:44:35;3.17;;;2.15;;
47273;SDS011;33007;49.082;19.306;2022-08-01T12:47:01;6.60;;;2.20;;
47273;SDS011;33007;49.082;19.306;2022-08-01T12:49:30;2.70;;;2.08;;
47273;SDS011;33007;49.082;19.306;2022-08-01T12:51:57;2.83;;;1.90;;
47273;SDS011;33007;49.082;19.306;2022-08-01T12:54:23;4.20;;;2.30;;
47273;SDS011;33007;49.082;19.306;2022-08-01T12:56:50;3.25;;;2.10;;
47273;SDS011;33007;49.082;19.306;2022-08-01T12:59:25;5.97;;;2.30;;
47273;SDS011;33007;49.082;19.306;2022-08-01T13:01:57;3.55;;;2.05;;
47273;SDS011;33007;49.082;19.306;2022-08-01T13:04:33;2.22;;;1.95;;
47273;SDS011;33007;49.082;19.306;2022-08-01T13:07:17;3.60;;;2.10;;
47273;SDS011;33007;49.082;19.306;2022-08-01T13:09:51;3.47;;;2.10;;
47273;SDS011;33007;49.082;19.306;2022-08-01T13:12:17;2.72;;;1.88;;
47273;SDS011;33007;49.082;19.306;2022-08-01T13:14:43;2.65;;;1.90;;
47273;SDS011;33007;49.082;19.306;2022-08-01T13:17:08;2.90;;;1.92;;
47273;SDS011;33007;49.082;19.306;2022-08-01T13:19:44;3.28;;;1.98;;
47273;SDS011;33007;49.082;19.306;2022-08-01T13:22:12;2.95;;;2.10;;
47273;SDS011;33007;49.082;19.306;2022-08-01T13:24:37;2.53;;;2.10;;
47273;SDS011;33007;49.082;19.306;2022-08-01T13:27:03;2.83;;;1.80;;
47273;SDS011;33007;49.082;19.306;2022-08-01T13:29:30;2.33;;;2.13;;
47273;SDS011;33007;49.082;19.306;2022-08-01T13:32:15;2.97;;;1.90;;
47273;SDS011;33007;49.082;19.306;2022-08-01T13:34:42;2.88;;;2.33;;
47273;SDS011;33007;49.082;19.306;2022-08-01T13:37:08;2.50;;;2.00;;
47273;SDS011;33007;49.082;19.306;2022-08-01T13:39:34;5.85;;;2.05;;
47273;SDS011;33007;49.082;19.306;2022-08-01T13:42:09;3.00;;;1.77;;
47273;SDS011;33007;49.082;19.306;2022-08-01T13:44:36;2.20;;;2.00;;
47273;SDS011;33007;49.082;19.306;2022-08-01T13:47:05;3.97;;;2.10;;
47273;SDS011;33007;49.082;19.306;2022-08-01T13:49:31;6.27;;;2.40;;
47273;SDS011;33007;49.082;19.306;2022-08-01T13:51:57;2.80;;;1.90;;
47273;SDS011;33007;49.082;19.306;2022-08-01T13:54:23;3.55;;;2.10;;
47273;SDS011;33007;49.082;19.306;2022-08-01T13:56:50;2.97;;;1.95;;
47273;SDS011;33007;49.082;19.306;2022-08-01T13:59:15;3.22;;;1.90;;
47273;SDS011;33007;49.082;19.306;2022-08-01T14:01:41;2.55;;;1.70;;
47273;SDS011;33007;49.082;19.306;2022-08-01T14:04:07;2.10;;;1.70;;
47273;SDS011;33007;49.082;19.306;2022-08-01T14:06:33;6.47;;;2.10;;
47273;SDS011;33007;49.082;19.306;2022-08-01T14:09:00;2.95;;;1.88;;
47273;SDS011;33007;49.082;19.306;2022-08-01T14:11:26;6.38;;;2.10;;
47273;SDS011;33007;49.082;19.306;2022-08-01T14:13:52;3.97;;;2.10;;
47273;SDS011;33007;49.082;19.306;2022-08-01T14:16:18;2.83;;;1.80;;
47273;SDS011;33007;49.082;19.306;2022-08-01T14:18:44;3.28;;;1.80;;
47273;SDS011;33007;49.082;19.306;2022-08-01T14:21:09;73.68;;;6.53;;
47273;SDS011;33007;49.082;19.306;2022-08-01T14:23:36;1.98;;;1.48;;
47273;SDS011;33007;49.082;19.306;2022-08-01T14:26:01;1.83;;;1.33;;
47273;SDS011;33007;49.082;19.306;2022-08-01T14:28:27;2.70;;;2.00;;
47273;SDS011;33007;49.082;19.306;2022-08-01T14:30:53;4.88;;;1.80;;
47273;SDS011;33007;49.082;19.306;2022-08-01T14:33:20;6.13;;;2.22;;
47273;SDS011;33007;49.082;19.306;2022-08-01T14:35:46;4.43;;;2.05;;
47273;SDS011;33007;49.082;19.306;2022-08-01T14:38:12;3.50;;;2.13;;
47273;SDS011;33007;49.082;19.306;2022-08-01T14:40:38;3.63;;;1.98;;
47273;SDS011;33007;49.082;19.306;2022-08-01T14:43:05;2.13;;;1.50;;
47273;SDS011;33007;49.082;19.306;2022-08-01T14:45:31;2.00;;;1.60;;
47273;SDS011;33007;49.082;19.306;2022-08-01T14:47:57;4.78;;;1.83;;
47273;SDS011;33007;49.082;19.306;2022-08-01T14:50:24;2.78;;;1.80;;
47273;SDS011;33007;49.082;19.306;2022-08-01T14:52:53;3.08;;;1.70;;
47273;SDS011;33007;49.082;19.306;2022-08-01T14:55:19;3.67;;;1.70;;
47273;SDS011;33007;49.082;19.306;2022-08-01T14:57:48;1.98;;;1.67;;
47273;SDS011;33007;49.082;19.306;2022-08-01T15:00:14;2.03;;;1.73;;
47273;SDS011;33007;49.082;19.306;2022-08-01T15:02:40;1.50;;;1.40;;
47273;SDS011;33007;49.082;19.306;2022-08-01T15:05:07;1.95;;;1.55;;
47273;SDS011;33007;49.082;19.306;2022-08-01T15:07:34;5.18;;;1.90;;
47273;SDS011;33007;49.082;19.306;2022-08-01T15:12:29;4.03;;;1.80;;
47273;SDS011;33007;49.082;19.306;2022-08-01T15:14:55;2.17;;;1.77;;
47273;SDS011;33007;49.082;19.306;2022-08-01T15:17:22;3.67;;;2.10;;
47273;SDS011;33007;49.082;19.306;2022-08-01T15:19:57;2.33;;;1.88;;
47273;SDS011;33007;49.082;19.306;2022-08-01T15:22:27;3.35;;;1.98;;